Time;durP1;ratioP1;P1;durP2;ratioP2;P2;SDS_P1;SDS_P2;PMS_P1;PMS_P2;Temp;Humidity;BMP_temperature;BMP_pressure;BME280_temperature;BME280_humidity;BME280_pressure;Samples;Min_cycle;Max_cycle;Signal;HPM_P1;HPM_P2
2024/01/18 00:02:44;;;;;;;14.02;6.32;;;13.80;76.00;;;;;;6241605;28;20136;-70
2024/01/18 00:05:45;;;;;;;8.82;4.75;;;13.80;75.90;;;;;;6251495;28;20084;-70
2024/01/18 00:08:46;;;;;;;9.80;5.35;;;13.80;76.10;;;;;;6249164;28;20040;-72
2024/01/18 00:11:47;;;;;;;10.98;5.35;;;13.80;76.00;;;;;;6241296;28;20017;-72
2024/01/18 00:14:48;;;;;;;7.75;4.93;;;13.80;76.00;;;;;;6251595;28;20102;-71
2024/01/18 00:17:49;;;;;;;11.13;6.90;;;13.80;76.00;;;;;;6244897;28;20100;-70
2024/01/18 00:20:50;;;;;;;8.93;5.82;;;13.80;76.10;;;;;;6230832;28;20044;-71
2024/01/18 00:23:52;;;;;;;13.80;7.40;;;13.80;76.10;;;;;;6231777;28;20063;-70
2024/01/18 00:26:53;;;;;;;10.65;6.63;;;13.70;76.00;;;;;;6248606;28;20048;-71
2024/01/18 00:29:55;;;;;;;10.07;5.68;;;13.70;75.90;;;;;;6246357;28;20083;-69
2024/01/18 00:32:55;;;;;;;10.27;5.88;;;13.60;75.80;;;;;;6246313;28;20036;-71
2024/01/18 00:35:56;;;;;;;9.30;6.28;;;13.60;75.90;;;;;;6234686;28;20559;-72
2024/01/18 00:38:57;;;;;;;11.25;6.65;;;13.60;76.20;;;;;;6247760;28;20779;-72
2024/01/18 00:41:58;;;;;;;14.13;7.10;;;13.60;76.40;;;;;;6234442;28;20084;-71
2024/01/18 00:44:59;;;;;;;13.00;6.75;;;13.60;76.40;;;;;;6244790;28;20040;-71
2024/01/18 00:47:59;;;;;;;8.90;4.95;;;13.60;76.60;;;;;;6252319;28;20063;-72
2024/01/18 00:51:00;;;;;;;11.88;6.40;;;13.60;76.60;;;;;;6247749;28;20029;-71
2024/01/18 00:54:02;;;;;;;9.38;5.07;;;13.70;76.50;;;;;;6247863;28;20495;-71
2024/01/18 00:57:03;;;;;;;9.05;5.35;;;13.80;76.40;;;;;;6248525;28;20036;-72
2024/01/18 01:00:06;;;;;;;10.70;6.18;;;13.80;76.20;;;;;;6255998;28;20105;-70
2024/01/18 01:03:07;;;;;;;11.75;6.68;;;13.80;76.10;;;;;;6246969;28;20778;-72
2024/01/18 01:06:12;;;;;;;12.07;6.32;;;13.80;76.00;;;;;;6246263;28;20079;-72
2024/01/18 01:09:14;;;;;;;12.45;5.20;;;13.90;76.10;;;;;;6245035;28;20051;-71
2024/01/18 01:12:15;;;;;;;9.63;5.45;;;13.80;75.90;;;;;;6259441;28;20032;-72
2024/01/18 01:15:16;;;;;;;9.98;6.13;;;13.80;76.00;;;;;;6244700;28;20029;-71
2024/01/18 01:18:17;;;;;;;11.18;5.90;;;13.80;75.90;;;;;;6245673;28;20483;-70
2024/01/18 01:21:17;;;;;;;11.00;5.72;;;13.80;75.90;;;;;;6245175;28;20021;-70
2024/01/18 01:24:18;;;;;;;11.32;5.75;;;13.80;76.00;;;;;;6248045;28;20110;-72
2024/01/18 01:27:19;;;;;;;12.50;6.05;;;13.80;76.10;;;;;;6259876;28;20190;-71
2024/01/18 01:30:20;;;;;;;11.75;6.55;;;13.80;76.00;;;;;;6260149;28;20075;-70
2024/01/18 01:33:21;;;;;;;13.20;6.55;;;13.80;76.00;;;;;;6243945;28;20021;-71
2024/01/18 01:36:21;;;;;;;13.38;6.72;;;13.80;76.10;;;;;;6250813;28;20039;-72
2024/01/18 01:39:22;;;;;;;11.95;5.88;;;13.80;76.20;;;;;;6244993;28;20017;-71
2024/01/18 01:42:24;;;;;;;10.82;6.03;;;13.90;76.20;;;;;;6258068;28;20140;-71
2024/01/18 01:45:25;;;;;;;11.40;6.07;;;13.80;76.00;;;;;;6245500;28;20335;-72
2024/01/18 01:48:26;;;;;;;13.15;6.40;;;13.80;76.10;;;;;;6271610;28;20020;-71
2024/01/18 01:51:30;;;;;;;10.80;5.57;;;13.80;76.40;;;;;;6228176;28;20129;-69
2024/01/18 01:54:32;;;;;;;13.50;6.05;;;13.80;76.40;;;;;;6243104;28;20017;-71
2024/01/18 01:57:35;;;;;;;13.73;5.47;;;13.80;76.30;;;;;;6235238;28;20115;-71
2024/01/18 02:00:37;;;;;;;10.50;5.70;;;13.80;76.20;;;;;;6280341;28;20013;-70
2024/01/18 02:03:37;;;;;;;10.88;5.72;;;13.80;76.20;;;;;;6248861;28;20025;-69
2024/01/18 02:06:40;;;;;;;8.77;5.05;;;13.90;76.20;;;;;;6246849;28;20171;-71
2024/01/18 02:09:41;;;;;;;6.80;3.88;;;13.90;76.10;;;;;;6243308;28;20113;-72
2024/01/18 02:12:42;;;;;;;10.52;5.05;;;13.90;76.00;;;;;;6240824;28;20081;-71
2024/01/18 02:15:44;;;;;;;6.72;4.50;;;13.90;76.00;;;;;;6242541;28;20025;-71
2024/01/18 02:18:46;;;;;;;9.85;4.68;;;13.80;76.00;;;;;;6245061;28;20449;-70
2024/01/18 02:21:47;;;;;;;9.95;5.47;;;13.90;76.00;;;;;;6258265;28;20021;-70
2024/01/18 02:24:54;;;;;;;5.82;4.07;;;13.90;76.10;;;;;;6234136;28;20075;-69
2024/01/18 02:27:59;;;;;;;6.63;4.25;;;13.80;76.00;;;;;;6243092;28;20178;-69
2024/01/18 02:31:00;;;;;;;9.10;4.25;;;13.90;76.10;;;;;;6248262;28;20032;-70
2024/01/18 02:34:09;;;;;;;4.95;2.88;;;13.90;76.10;;;;;;6242631;28;20450;-70
2024/01/18 02:37:11;;;;;;;5.63;3.20;;;13.90;76.00;;;;;;6253301;28;20040;-71
2024/01/18 02:40:13;;;;;;;6.15;3.33;;;13.90;75.90;;;;;;6260170;28;20564;-70
2024/01/18 02:43:13;;;;;;;7.57;2.80;;;13.90;75.90;;;;;;6250419;28;20493;-70
2024/01/18 02:46:17;;;;;;;7.57;3.10;;;14.00;75.80;;;;;;6251655;28;20021;-72
2024/01/18 02:49:19;;;;;;;3.83;2.47;;;14.00;75.50;;;;;;6248156;28;20029;-72
2024/01/18 02:52:20;;;;;;;3.83;2.45;;;13.90;75.40;;;;;;6259850;28;20492;-71
2024/01/18 02:55:21;;;;;;;2.83;1.70;;;13.90;75.70;;;;;;6248278;28;20017;-70
2024/01/18 02:58:22;;;;;;;1.92;1.50;;;13.90;75.80;;;;;;6253620;28;20045;-71
2024/01/18 03:01:23;;;;;;;5.55;2.00;;;13.90;75.80;;;;;;6238575;28;20030;-70
2024/01/18 03:04:25;;;;;;;1.50;1.40;;;13.90;75.90;;;;;;6257738;28;20303;-70
2024/01/18 03:07:28;;;;;;;2.53;1.75;;;14.00;75.80;;;;;;6255944;28;20086;-71
2024/01/18 03:10:29;;;;;;;3.38;1.67;;;14.00;75.80;;;;;;6254575;28;20020;-71
2024/01/18 03:13:31;;;;;;;2.53;1.58;;;14.00;75.70;;;;;;6250943;28;20040;-72
2024/01/18 03:16:32;;;;;;;1.48;0.95;;;14.00;75.30;;;;;;6251105;28;20119;-69
2024/01/18 03:19:34;;;;;;;3.85;1.73;;;14.00;75.30;;;;;;6229923;28;20052;-71
2024/01/18 03:22:39;;;;;;;2.15;1.45;;;14.00;75.40;;;;;;6228580;28;20481;-70
2024/01/18 03:25:39;;;;;;;3.50;1.80;;;14.00;75.40;;;;;;6249586;28;20115;-71
2024/01/18 03:28:40;;;;;;;1.23;1.13;;;14.10;75.40;;;;;;6242751;28;20025;-70
2024/01/18 03:31:41;;;;;;;2.55;1.60;;;14.10;75.30;;;;;;6242711;28;20079;-71
2024/01/18 03:34:42;;;;;;;3.13;1.55;;;14.10;75.30;;;;;;6245554;28;20033;-70
2024/01/18 03:37:43;;;;;;;4.78;2.55;;;14.10;75.10;;;;;;6241372;28;20028;-71
2024/01/18 03:40:44;;;;;;;6.97;3.88;;;14.10;75.00;;;;;;6247135;28;20021;-72
2024/01/18 03:43:45;;;;;;;6.38;3.78;;;14.10;74.80;;;;;;6247567;28;20079;-71
2024/01/18 03:46:46;;;;;;;8.00;4.28;;;14.00;74.90;;;;;;6243505;28;20052;-70
2024/01/18 03:49:48;;;;;;;8.52;4.35;;;14.00;75.10;;;;;;6244312;28;20111;-72
2024/01/18 03:52:49;;;;;;;9.88;5.28;;;14.00;75.10;;;;;;6248241;28;20033;-70
2024/01/18 03:55:50;;;;;;;13.13;5.03;;;14.00;75.00;;;;;;6233073;28;20071;-70
2024/01/18 03:58:52;;;;;;;9.57;4.55;;;13.90;75.00;;;;;;6248117;28;20564;-70
2024/01/18 04:01:52;;;;;;;8.63;4.82;;;13.90;75.10;;;;;;6245718;28;20013;-71
2024/01/18 04:04:53;;;;;;;11.65;6.20;;;13.90;75.20;;;;;;6251011;28;20302;-72
2024/01/18 04:07:54;;;;;;;10.90;5.40;;;13.90;75.10;;;;;;6248449;28;20048;-72
2024/01/18 04:10:55;;;;;;;13.57;6.25;;;13.80;75.00;;;;;;6244312;28;20025;-71
2024/01/18 04:13:58;;;;;;;13.63;6.07;;;13.90;75.00;;;;;;6273318;28;20116;-71
2024/01/18 04:16:58;;;;;;;11.85;5.95;;;13.80;75.10;;;;;;6245011;28;20124;-71
2024/01/18 04:19:59;;;;;;;13.30;6.07;;;13.80;75.20;;;;;;6229949;28;20023;-68
2024/01/18 04:23:00;;;;;;;16.00;6.65;;;13.70;75.20;;;;;;6243734;28;20361;-71
2024/01/18 04:26:04;;;;;;;10.50;6.00;;;13.70;75.30;;;;;;6258777;28;20042;-69
2024/01/18 04:29:04;;;;;;;10.15;5.35;;;13.80;75.10;;;;;;6252259;28;20021;-72
2024/01/18 04:32:05;;;;;;;12.85;6.13;;;13.70;75.30;;;;;;6265045;28;20201;-71
2024/01/18 04:35:07;;;;;;;11.23;5.55;;;13.70;75.50;;;;;;6242164;28;20450;-69
2024/01/18 04:38:08;;;;;;;11.88;5.85;;;13.70;75.50;;;;;;6243134;28;20028;-71
2024/01/18 04:41:09;;;;;;;11.40;5.43;;;13.70;75.30;;;;;;6246346;28;20405;-72
2024/01/18 04:44:10;;;;;;;11.27;6.28;;;13.70;75.50;;;;;;6233796;28;20227;-70
2024/01/18 04:47:11;;;;;;;11.32;6.28;;;13.60;75.50;;;;;;6242967;28;20056;-69
2024/01/18 04:50:12;;;;;;;12.80;6.60;;;13.60;75.60;;;;;;6252160;28;20033;-71
2024/01/18 04:53:14;;;;;;;12.68;6.32;;;13.70;75.50;;;;;;6280149;28;20499;-72
2024/01/18 04:56:15;;;;;;;7.95;5.00;;;13.60;75.50;;;;;;6242869;28;20060;-70
2024/01/18 04:59:17;;;;;;;10.93;5.90;;;13.70;75.70;;;;;;6245145;28;20017;-71
2024/01/18 05:02:19;;;;;;;10.80;5.90;;;13.60;75.60;;;;;;6260333;28;20495;-71
2024/01/18 05:05:20;;;;;;;12.68;4.85;;;13.60;75.70;;;;;;6232322;28;20037;-70
2024/01/18 05:08:21;;;;;;;10.93;5.63;;;13.70;75.80;;;;;;6245317;28;20124;-71
2024/01/18 05:11:22;;;;;;;11.93;5.95;;;13.70;75.80;;;;;;6252220;28;20181;-71
2024/01/18 05:14:22;;;;;;;10.68;5.63;;;13.70;75.80;;;;;;6244804;28;20025;-71
2024/01/18 05:17:29;;;;;;;9.50;5.03;;;13.70;75.70;;;;;;6274136;28;20556;-70
2024/01/18 05:20:32;;;;;;;9.65;4.82;;;13.80;75.80;;;;;;6256294;28;20108;-70
2024/01/18 05:23:33;;;;;;;9.93;5.97;;;13.80;75.80;;;;;;6248631;28;20017;-70
2024/01/18 05:26:33;;;;;;;8.43;5.13;;;13.80;75.60;;;;;;6239568;28;20048;-71
2024/01/18 05:29:34;;;;;;;12.05;5.50;;;13.80;75.60;;;;;;6215842;28;20111;-69
2024/01/18 05:32:36;;;;;;;10.18;5.38;;;13.80;75.70;;;;;;6253281;28;20063;-71
2024/01/18 05:35:37;;;;;;;9.45;4.57;;;13.90;75.70;;;;;;6250904;28;20116;-71
2024/01/18 05:38:38;;;;;;;6.50;3.70;;;13.90;75.50;;;;;;6248421;28;20074;-71
2024/01/18 05:41:40;;;;;;;7.32;4.13;;;14.00;75.70;;;;;;6274388;28;20017;-70
2024/01/18 05:44:41;;;;;;;5.60;4.00;;;13.80;75.60;;;;;;6245158;28;20024;-72
2024/01/18 05:47:43;;;;;;;7.82;4.88;;;13.80;75.60;;;;;;6248169;28;20029;-71
2024/01/18 05:50:43;;;;;;;7.43;4.20;;;13.80;75.70;;;;;;6248897;28;20074;-72
2024/01/18 05:53:44;;;;;;;6.20;3.95;;;13.80;75.70;;;;;;6230182;28;20028;-69
2024/01/18 05:56:46;;;;;;;9.07;4.03;;;13.80;75.70;;;;;;6250118;28;20074;-71
2024/01/18 05:59:47;;;;;;;8.90;4.10;;;13.80;75.70;;;;;;6250090;28;20013;-71
2024/01/18 06:02:48;;;;;;;7.05;3.88;;;13.70;75.70;;;;;;6280332;28;20698;-71
2024/01/18 06:05:49;;;;;;;9.50;4.00;;;13.80;76.00;;;;;;6248030;28;20022;-70
2024/01/18 06:08:52;;;;;;;7.63;3.95;;;13.80;75.80;;;;;;6228819;28;20150;-72
2024/01/18 06:11:52;;;;;;;10.15;4.00;;;13.80;75.90;;;;;;6247163;28;20025;-72
2024/01/18 06:14:55;;;;;;;7.38;4.35;;;13.80;75.90;;;;;;6248567;28;20155;-71
2024/01/18 06:18:03;;;;;;;7.18;4.30;;;13.80;75.90;;;;;;6249584;28;20108;-72
2024/01/18 06:21:08;;;;;;;7.85;4.15;;;13.80;75.70;;;;;;6253372;28;20025;-71
2024/01/18 06:24:09;;;;;;;9.85;4.18;;;13.80;75.60;;;;;;6250859;28;20188;-71
2024/01/18 06:27:10;;;;;;;8.13;4.55;;;13.80;75.80;;;;;;6263749;28;20132;-71
2024/01/18 06:30:11;;;;;;;10.73;4.78;;;13.80;75.80;;;;;;6246691;28;20021;-71
2024/01/18 06:33:12;;;;;;;12.82;4.82;;;13.80;76.00;;;;;;6255515;28;20460;-72
2024/01/18 06:36:14;;;;;;;10.57;4.78;;;13.80;75.90;;;;;;6244100;28;20113;-71
2024/01/18 06:39:15;;;;;;;8.45;4.75;;;13.80;75.90;;;;;;6250491;28;20025;-72
2024/01/18 06:42:16;;;;;;;9.32;4.93;;;13.80;76.00;;;;;;6251208;28;20059;-73
2024/01/18 06:45:17;;;;;;;7.10;3.97;;;13.80;76.10;;;;;;6246258;28;20433;-73
2024/01/18 06:48:18;;;;;;;9.77;4.22;;;13.80;75.90;;;;;;6249339;28;20025;-73
2024/01/18 06:51:23;;;;;;;8.60;4.05;;;13.80;75.90;;;;;;6250887;28;20059;-73
2024/01/18 06:54:24;;;;;;;7.05;4.22;;;13.80;75.90;;;;;;6244883;28;20029;-71
2024/01/18 06:57:28;;;;;;;6.65;3.72;;;13.80;76.00;;;;;;6246372;28;20068;-73
2024/01/18 07:00:30;;;;;;;8.98;4.97;;;13.80;76.00;;;;;;6242094;28;20093;-72
2024/01/18 07:03:35;;;;;;;7.30;3.92;;;13.90;75.90;;;;;;6253056;28;20025;-73
2024/01/18 07:06:36;;;;;;;8.88;4.75;;;13.80;76.00;;;;;;6245049;28;20112;-71
2024/01/18 07:09:37;;;;;;;9.38;4.75;;;13.80;75.90;;;;;;6281433;28;20039;-72
2024/01/18 07:12:38;;;;;;;9.43;4.75;;;13.90;75.90;;;;;;6229172;28;20022;-73
2024/01/18 07:15:39;;;;;;;9.48;4.28;;;13.80;75.80;;;;;;6246961;28;20377;-73
2024/01/18 07:18:40;;;;;;;8.52;4.65;;;13.80;76.00;;;;;;6235056;28;20048;-74
2024/01/18 07:21:41;;;;;;;11.68;5.30;;;13.90;76.10;;;;;;6241357;28;20021;-71
2024/01/18 07:24:41;;;;;;;10.30;4.35;;;13.90;76.00;;;;;;6243703;28;20029;-74
2024/01/18 07:27:43;;;;;;;11.95;5.38;;;14.00;76.00;;;;;;6243763;28;20079;-73
2024/01/18 07:30:44;;;;;;;8.63;4.85;;;14.00;76.10;;;;;;6247946;28;20037;-73
2024/01/18 07:33:45;;;;;;;10.07;4.13;;;14.00;76.00;;;;;;6260183;28;20016;-73
2024/01/18 07:36:46;;;;;;;8.30;4.03;;;14.00;75.90;;;;;;6243852;28;20029;-73
2024/01/18 07:39:46;;;;;;;9.02;4.00;;;14.00;75.90;;;;;;6253264;28;20029;-72
2024/01/18 07:42:47;;;;;;;8.15;3.95;;;14.10;76.00;;;;;;6279924;28;20023;-73
2024/01/18 07:45:48;;;;;;;6.00;3.25;;;14.10;75.80;;;;;;6245844;28;20202;-72
2024/01/18 07:48:51;;;;;;;9.50;4.80;;;14.10;75.80;;;;;;6243227;28;20036;-73
2024/01/18 07:51:52;;;;;;;6.47;4.28;;;14.10;75.50;;;;;;6277360;28;20037;-74
2024/01/18 07:54:53;;;;;;;8.02;4.43;;;14.10;76.50;;;;;;6263409;28;20132;-73
2024/01/18 07:57:55;;;;;;;23.92;9.63;;;14.20;75.70;;;;;;6242480;28;20078;-74
2024/01/18 08:00:57;;;;;;;11.18;4.38;;;14.20;75.60;;;;;;6251397;28;20021;-72
2024/01/18 08:03:59;;;;;;;10.52;4.72;;;14.20;75.50;;;;;;6272980;28;20128;-72
2024/01/18 08:07:00;;;;;;;10.15;4.22;;;14.30;75.50;;;;;;6248105;28;20102;-73
2024/01/18 08:10:01;;;;;;;10.02;5.35;;;14.30;75.40;;;;;;6246409;28;20018;-73
2024/01/18 08:13:02;;;;;;;11.23;5.22;;;14.30;75.40;;;;;;6264714;28;20111;-73
2024/01/18 08:16:03;;;;;;;8.95;4.50;;;14.30;75.30;;;;;;6249115;28;20190;-74
2024/01/18 08:19:04;;;;;;;12.43;4.78;;;14.30;75.20;;;;;;6241868;28;20129;-74
2024/01/18 08:22:06;;;;;;;8.98;5.40;;;14.30;75.20;;;;;;6242513;28;20596;-75
2024/01/18 08:25:08;;;;;;;10.00;4.95;;;14.40;75.00;;;;;;6275588;28;20018;-73
2024/01/18 08:28:10;;;;;;;12.30;5.68;;;14.40;74.90;;;;;;6244105;28;20022;-74
2024/01/18 08:31:11;;;;;;;9.18;4.95;;;14.40;74.80;;;;;;6250487;28;20047;-74
2024/01/18 08:34:12;;;;;;;8.68;4.95;;;14.40;74.90;;;;;;6278682;28;20025;-74
2024/01/18 08:37:13;;;;;;;9.43;5.20;;;14.40;74.90;;;;;;6241095;28;20079;-73
2024/01/18 08:40:14;;;;;;;10.82;4.47;;;14.50;74.80;;;;;;6245418;28;20092;-73
2024/01/18 08:43:17;;;;;;;8.48;4.13;;;14.40;74.40;;;;;;6234489;28;20048;-74
2024/01/18 08:46:18;;;;;;;9.77;4.50;;;14.40;74.60;;;;;;6242642;28;20050;-73
2024/01/18 08:49:24;;;;;;;11.55;5.97;;;14.50;74.50;;;;;;6247576;28;20441;-75
2024/01/18 08:52:25;;;;;;;9.80;5.25;;;14.50;74.50;;;;;;6245342;28;20028;-73
2024/01/18 08:55:26;;;;;;;7.82;4.07;;;14.50;74.50;;;;;;6245785;28;20055;-74
2024/01/18 08:58:27;;;;;;;8.88;5.45;;;14.60;74.50;;;;;;6255280;28;20028;-74
2024/01/18 09:01:27;;;;;;;10.05;5.15;;;14.60;74.30;;;;;;6248806;28;20334;-74
2024/01/18 09:04:28;;;;;;;7.20;4.40;;;14.60;74.00;;;;;;6249728;28;20500;-74
2024/01/18 09:07:29;;;;;;;12.32;4.63;;;14.70;73.90;;;;;;6273271;28;20029;-75
2024/01/18 09:10:31;;;;;;;8.75;4.13;;;14.70;74.00;;;;;;6245293;28;20065;-75
2024/01/18 09:13:32;;;;;;;7.65;3.53;;;14.70;73.80;;;;;;6241356;28;20017;-75
2024/01/18 09:16:33;;;;;;;10.35;3.10;;;14.80;73.80;;;;;;6264371;28;20037;-74
2024/01/18 09:19:34;;;;;;;13.80;3.95;;;14.80;73.70;;;;;;6245247;28;20017;-70
2024/01/18 09:22:35;;;;;;;7.13;3.45;;;14.70;73.60;;;;;;6243502;28;20117;-75
2024/01/18 09:25:36;;;;;;;6.25;3.15;;;14.70;73.60;;;;;;6259209;28;20405;-74
2024/01/18 09:28:37;;;;;;;7.10;2.78;;;14.60;73.70;;;;;;6243257;28;20029;-74
2024/01/18 09:31:37;;;;;;;3.15;1.65;;;14.50;73.90;;;;;;6232693;28;20030;-74
2024/01/18 09:34:40;;;;;;;7.90;3.35;;;14.50;74.00;;;;;;6243033;28;20028;-73
2024/01/18 09:37:42;;;;;;;8.25;3.83;;;14.60;74.10;;;;;;6244096;28;20031;-74
2024/01/18 09:40:43;;;;;;;4.15;2.25;;;14.60;74.20;;;;;;6245747;28;20013;-74
2024/01/18 09:43:45;;;;;;;7.63;2.45;;;14.70;74.10;;;;;;6250446;28;20020;-75
2024/01/18 09:46:46;;;;;;;4.28;1.40;;;14.70;74.10;;;;;;6227413;28;20036;-72
2024/01/18 09:49:50;;;;;;;7.38;1.85;;;14.70;74.00;;;;;;6241464;28;20073;-75
2024/01/18 09:52:51;;;;;;;2.60;1.60;;;14.70;73.90;;;;;;6244410;28;20120;-74
2024/01/18 09:55:56;;;;;;;3.30;1.75;;;14.80;74.00;;;;;;6246946;28;20041;-74
2024/01/18 09:58:58;;;;;;;8.23;2.67;;;14.80;73.90;;;;;;6241827;28;20131;-74
2024/01/18 10:02:01;;;;;;;7.60;2.20;;;14.80;73.70;;;;;;6242484;28;20028;-74
2024/01/18 10:05:02;;;;;;;7.63;2.35;;;14.90;73.80;;;;;;6230020;28;20028;-73
2024/01/18 10:08:03;;;;;;;5.93;2.60;;;15.00;73.70;;;;;;6245535;28;20423;-75
2024/01/18 10:11:05;;;;;;;6.13;2.28;;;15.10;73.60;;;;;;6247527;28;20030;-72
2024/01/18 10:14:07;;;;;;;21.50;2.95;;;15.10;73.40;;;;;;6248647;28;20457;-75
2024/01/18 10:17:29;;;;;;;10.48;3.65;;;15.20;73.30;;;;;;6243616;28;20132;-76
2024/01/18 10:20:31;;;;;;;5.97;3.10;;;15.30;73.20;;;;;;6228126;28;20402;-74
2024/01/18 10:23:32;;;;;;;10.30;4.70;;;15.50;73.10;;;;;;6274730;28;20021;-75
2024/01/18 10:26:33;;;;;;;12.98;4.20;;;15.50;72.70;;;;;;6245445;28;20488;-75
2024/01/18 10:29:35;;;;;;;7.10;3.28;;;15.80;72.50;;;;;;6245220;28;20020;-74
2024/01/18 10:32:39;;;;;;;5.50;2.65;;;15.90;72.20;;;;;;6250856;28;20037;-75
2024/01/18 10:35:39;;;;;;;5.47;2.17;;;16.00;71.60;;;;;;6243482;28;20281;-75
2024/01/18 10:38:41;;;;;;;6.55;2.58;;;16.10;71.30;;;;;;6231705;28;20017;-75
2024/01/18 10:41:43;;;;;;;3.70;1.73;;;16.20;71.20;;;;;;6241487;28;20115;-73
2024/01/18 10:44:45;;;;;;;6.00;2.28;;;16.20;70.80;;;;;;6244791;28;20634;-76
2024/01/18 10:47:47;;;;;;;5.78;1.95;;;16.20;70.80;;;;;;6262618;28;20089;-74
2024/01/18 10:50:51;;;;;;;5.28;2.45;;;16.30;70.60;;;;;;6242441;28;20128;-74
2024/01/18 10:53:54;;;;;;;4.43;2.15;;;16.30;70.60;;;;;;6243729;28;20037;-74
2024/01/18 10:56:56;;;;;;;3.70;1.98;;;16.30;70.10;;;;;;6246277;28;20037;-75
2024/01/18 10:59:59;;;;;;;3.08;2.00;;;16.30;69.60;;;;;;6274511;28;20099;-74
2024/01/18 11:03:01;;;;;;;0.80;0.70;;;16.30;69.90;;;;;;6248962;28;20045;-74
2024/01/18 11:06:09;;;;;;;0.90;0.80;;;16.30;69.00;;;;;;6245261;28;20481;-74
2024/01/18 11:09:12;;;;;;;10.00;1.83;;;16.20;69.10;;;;;;6279375;28;20109;-74
2024/01/18 11:12:14;;;;;;;5.03;1.00;;;16.40;69.20;;;;;;6237686;28;20091;-75
2024/01/18 11:15:19;;;;;;;2.90;1.38;;;16.40;69.30;;;;;;6246561;28;20111;-75
2024/01/18 11:18:21;;;;;;;3.53;1.42;;;16.40;69.10;;;;;;6247901;28;20482;-74
2024/01/18 11:21:42;;;;;;;4.82;1.23;;;16.50;69.10;;;;;;6247349;28;20105;-74
2024/01/18 11:24:43;;;;;;;2.55;1.35;;;16.50;68.80;;;;;;6247068;28;20056;-75
2024/01/18 11:27:45;;;;;;;3.65;1.40;;;16.60;68.70;;;;;;6240906;28;20021;-74
2024/01/18 11:30:47;;;;;;;6.63;1.75;;;16.50;68.30;;;;;;6279254;28;20017;-75
2024/01/18 11:33:49;;;;;;;12.27;3.10;;;16.40;67.90;;;;;;6241257;28;20543;-73
2024/01/18 11:36:50;;;;;;;9.07;1.67;;;16.20;68.10;;;;;;6261318;28;20052;-75
2024/01/18 11:39:53;;;;;;;4.20;1.13;;;16.10;68.60;;;;;;6247939;28;20441;-74
2024/01/18 11:42:54;;;;;;;4.28;1.50;;;16.00;68.80;;;;;;6246183;28;20061;-75
2024/01/18 11:45:55;;;;;;;5.20;1.65;;;15.90;68.90;;;;;;6248919;28;20393;-74
2024/01/18 11:48:56;;;;;;;5.80;1.88;;;15.80;69.20;;;;;;6245056;28;20155;-75
2024/01/18 11:51:58;;;;;;;7.47;1.90;;;15.70;69.60;;;;;;6247075;28;20465;-74
2024/01/18 11:54:59;;;;;;;10.75;2.30;;;15.60;69.80;;;;;;6277117;28;20048;-73
2024/01/18 11:58:01;;;;;;;5.78;1.90;;;15.50;70.00;;;;;;6260902;28;20095;-73
2024/01/18 12:01:03;;;;;;;3.72;2.28;;;15.50;70.30;;;;;;6243913;28;20028;-73
2024/01/18 12:04:04;;;;;;;4.10;1.90;;;15.50;70.60;;;;;;6247351;28;20036;-73
2024/01/18 12:07:07;;;;;;;5.45;2.22;;;15.50;70.60;;;;;;6242297;28;20076;-75
2024/01/18 12:10:09;;;;;;;8.93;2.78;;;15.50;70.60;;;;;;6255928;28;20539;-74
2024/01/18 12:13:10;;;;;;;7.22;3.03;;;15.50;70.70;;;;;;6247890;28;20021;-74
2024/01/18 12:16:13;;;;;;;9.35;3.95;;;15.60;70.80;;;;;;6249850;28;20044;-74
2024/01/18 12:19:28;;;;;;;9.88;4.10;;;15.60;70.80;;;;;;6283056;28;20048;-74
2024/01/18 12:22:29;;;;;;;8.65;3.70;;;15.70;70.90;;;;;;6245917;28;20477;-74
2024/01/18 12:25:32;;;;;;;12.23;4.38;;;15.80;70.90;;;;;;6213052;28;20067;-75
2024/01/18 12:28:33;;;;;;;8.25;3.15;;;15.70;70.70;;;;;;6243125;28;20071;-74
2024/01/18 12:31:35;;;;;;;9.98;2.80;;;15.80;70.70;;;;;;6240739;28;20112;-73
2024/01/18 12:34:37;;;;;;;7.45;3.00;;;15.80;70.70;;;;;;6245612;28;20025;-75
2024/01/18 12:37:38;;;;;;;6.43;3.08;;;15.80;70.80;;;;;;6241918;28;20033;-75
2024/01/18 12:40:39;;;;;;;7.15;3.55;;;15.80;70.60;;;;;;6258504;28;20036;-75
2024/01/18 12:43:40;;;;;;;12.23;4.55;;;15.80;70.70;;;;;;6243635;28;20098;-73
2024/01/18 12:46:41;;;;;;;14.80;4.18;;;15.80;70.60;;;;;;6245833;28;20017;-75
2024/01/18 12:49:42;;;;;;;7.00;3.67;;;15.80;70.70;;;;;;6249996;28;20035;-75
2024/01/18 12:52:43;;;;;;;11.15;6.30;;;15.80;70.70;;;;;;6280539;28;20025;-74
2024/01/18 12:55:44;;;;;;;12.63;7.28;;;15.80;70.70;;;;;;6246895;28;20087;-73
2024/01/18 12:58:48;;;;;;;8.82;3.95;;;15.80;70.70;;;;;;6245207;28;20031;-76
2024/01/18 13:01:52;;;;;;;7.72;2.30;;;15.70;70.40;;;;;;6246062;28;20065;-74
2024/01/18 13:04:57;;;;;;;2.40;1.30;;;15.70;70.50;;;;;;6243342;28;20021;-73
2024/01/18 13:07:58;;;;;;;1.10;0.88;;;15.60;70.50;;;;;;6243502;28;20024;-73
2024/01/18 13:10:59;;;;;;;5.07;1.50;;;15.50;70.60;;;;;;6245473;28;20128;-74
2024/01/18 13:14:04;;;;;;;1.90;1.05;;;15.40;70.70;;;;;;6235943;28;20028;-74
2024/01/18 13:17:05;;;;;;;1.60;1.05;;;15.40;70.90;;;;;;6244700;28;20025;-73
2024/01/18 13:20:10;;;;;;;1.52;0.80;;;15.40;71.20;;;;;;6273239;28;20499;-74
2024/01/18 13:23:12;;;;;;;2.38;1.42;;;15.30;71.10;;;;;;6245146;28;20108;-72
2024/01/18 13:26:13;;;;;;;2.38;1.15;;;15.30;71.10;;;;;;6235420;28;20031;-73
2024/01/18 13:29:16;;;;;;;4.07;1.30;;;15.40;72.00;;;;;;6243550;28;20018;-73
2024/01/18 13:32:17;;;;;;;4.68;0.95;;;15.30;71.00;;;;;;6240967;28;20119;-74
2024/01/18 13:35:17;;;;;;;1.83;1.42;;;15.30;71.00;;;;;;6237622;28;20037;-73
2024/01/18 13:38:18;;;;;;;3.15;1.27;;;15.30;71.10;;;;;;6241703;28;20575;-74
2024/01/18 13:41:19;;;;;;;4.47;1.55;;;15.30;71.10;;;;;;6238740;28;20077;-74
2024/01/18 13:44:20;;;;;;;1.13;0.90;;;15.30;71.30;;;;;;6243371;28;20572;-75
2024/01/18 13:47:21;;;;;;;5.82;1.23;;;15.20;71.20;;;;;;6275415;28;20024;-73
2024/01/18 13:50:23;;;;;;;3.72;1.58;;;15.20;71.20;;;;;;6246087;28;20551;-74
2024/01/18 13:53:27;;;;;;;2.85;1.50;;;15.20;71.20;;;;;;6244040;28;20098;-74
2024/01/18 13:56:28;;;;;;;6.10;1.27;;;15.10;71.20;;;;;;6238336;28;20108;-72
2024/01/18 13:59:29;;;;;;;0.70;0.60;;;15.10;71.30;;;;;;6244830;28;20342;-74
2024/01/18 14:02:30;;;;;;;3.72;0.90;;;15.10;71.40;;;;;;6256967;28;20021;-74
2024/01/18 14:05:31;;;;;;;0.98;0.65;;;15.10;71.40;;;;;;6247853;28;20055;-73
2024/01/18 14:08:32;;;;;;;1.00;0.52;;;15.00;71.50;;;;;;6242786;28;20062;-72
2024/01/18 14:11:32;;;;;;;5.18;1.15;;;15.10;71.60;;;;;;6274483;28;20073;-74
2024/01/18 14:14:33;;;;;;;1.33;1.05;;;15.10;71.50;;;;;;6245976;28;20440;-74
2024/01/18 14:17:34;;;;;;;0.88;0.65;;;15.10;71.50;;;;;;6243400;28;20513;-74
2024/01/18 14:20:35;;;;;;;0.63;0.60;;;15.10;71.50;;;;;;6246365;28;20029;-74
2024/01/18 14:23:36;;;;;;;4.38;1.13;;;15.10;71.40;;;;;;6245713;28;20499;-74
2024/01/18 14:26:37;;;;;;;2.30;1.10;;;15.10;71.50;;;;;;6244173;28;20028;-73
2024/01/18 14:29:38;;;;;;;2.83;1.30;;;15.10;71.50;;;;;;6248653;28;20430;-74
2024/01/18 14:32:40;;;;;;;2.90;1.60;;;15.20;71.60;;;;;;6244538;28;20108;-73
2024/01/18 14:35:40;;;;;;;2.10;1.27;;;15.20;71.60;;;;;;6233340;28;20092;-73
2024/01/18 14:38:41;;;;;;;4.88;0.90;;;15.20;71.50;;;;;;6254854;28;20049;-73
2024/01/18 14:41:42;;;;;;;45.28;19.02;;;15.30;71.50;;;;;;6282111;28;20457;-74
2024/01/18 14:44:44;;;;;;;5.47;2.80;;;15.30;71.50;;;;;;6239538;28;20022;-74
2024/01/18 14:47:45;;;;;;;3.45;2.15;;;15.40;71.50;;;;;;6264394;28;20013;-76
2024/01/18 14:50:46;;;;;;;4.72;1.88;;;15.30;71.40;;;;;;6255889;28;20058;-76
2024/01/18 14:53:47;;;;;;;6.28;2.05;;;15.40;71.30;;;;;;6251327;28;20075;-74
2024/01/18 14:56:48;;;;;;;5.57;2.15;;;15.40;71.10;;;;;;6253358;28;20041;-73
2024/01/18 14:59:50;;;;;;;5.18;2.60;;;15.40;71.20;;;;;;6255364;28;20032;-73
2024/01/18 15:02:50;;;;;;;4.90;2.50;;;15.40;71.30;;;;;;6251115;28;20024;-74
2024/01/18 15:05:51;;;;;;;5.70;2.05;;;15.40;71.30;;;;;;6255284;28;20025;-73
2024/01/18 15:08:52;;;;;;;3.70;1.92;;;15.40;71.20;;;;;;6230534;28;20245;-74
2024/01/18 15:11:53;;;;;;;8.55;1.67;;;15.50;71.20;;;;;;6254523;28;20875;-73
2024/01/18 15:14:54;;;;;;;8.43;2.08;;;15.50;71.20;;;;;;6250287;28;20025;-74
2024/01/18 15:17:56;;;;;;;2.92;1.98;;;15.50;71.20;;;;;;6249242;28;20039;-74
2024/01/18 15:20:58;;;;;;;3.08;1.38;;;15.50;71.00;;;;;;6238065;28;20078;-73
2024/01/18 15:23:59;;;;;;;1.33;0.82;;;15.40;71.00;;;;;;6247053;28;20025;-75
2024/01/18 15:26:59;;;;;;;5.65;1.23;;;15.40;71.20;;;;;;6247708;28;20049;-73
2024/01/18 15:30:03;;;;;;;2.53;1.27;;;15.30;71.20;;;;;;6283061;28;20025;-73
2024/01/18 15:33:04;;;;;;;3.08;1.63;;;15.30;71.20;;;;;;6253859;28;20025;-74
2024/01/18 15:36:07;;;;;;;3.75;1.95;;;15.30;71.10;;;;;;6246322;28;20044;-73
2024/01/18 15:39:08;;;;;;;3.97;1.42;;;15.30;71.20;;;;;;6246088;28;20329;-73
2024/01/18 15:42:09;;;;;;;6.40;1.95;;;15.40;71.20;;;;;;6248650;28;20009;-73